F/V Oceanie — FVBW — position and weather

sailwx.info

Track history (hours):
 
Tides and Currents Weather Stations Pressure Air Temp Water Temp Dewpoint Dewpoint Depression Visibility Wind Speed Wind Dir Waves Ship Positions

F/V Oceanie

Last reported at 2016-May-24 20:15 UTC. Time now 2016-May-24 21:27 UTC.
Position N 47°12' W 003°33'.

Length 16 m.

Type: Fishing. MMSI: 228370000.

Date/timePositionNaut miles runAvg speedWind from/ knotsBaromVisibWave heightAir tempDewpointWater temp
2016-May-24 20:15N 47°12' W 003°33'2 3.4
2016-May-24 19:33N 47°10' W 003°34'10 2.3
2016-May-24 15:12N 47°00' W 003°40'3 0.5
2016-May-24 09:20N 47°03' W 003°42'8 1.2
2016-May-24 02:28N 46°56' W 003°36'3 3.3
2016-May-24 01:30N 46°57' W 003°32'1 1.3
2016-May-24 00:24N 46°56' W 003°30'3 3.6
2016-May-23 23:30N 46°55' W 003°35'11 0.6
2016-May-23 05:24N 47°02' W 003°22'7 8.7
2016-May-23 04:33N 47°09' W 003°22'9 8.7
2016-May-23 03:34N 47°18' W 003°22'9 8.7
2016-May-23 02:34N 47°26' W 003°22'9 8.6
2016-May-23 01:34N 47°35' W 003°22'9 8.8
2016-May-23 00:34N 47°44' W 003°22'0 0.0
2016-May-21 00:33N 47°44' W 003°22'0 0.1
2016-May-20 23:33N 47°44' W 003°22'5 5.2
2016-May-20 22:33N 47°40' W 003°28'9 9.0
2016-May-20 21:33N 47°35' W 003°39'9 9.1
2016-May-20 20:33N 47°29' W 003°49'4 4.2
2016-May-20 19:33N 47°25' W 003°51'13 3.8
2016-May-20 16:12N 47°13' W 003°48'2 1.9
2016-May-20 15:25N 47°14' W 003°47'2 1.6
2016-May-20 14:23N 47°13' W 003°49'2 1.9
2016-May-20 13:26N 47°13' W 003°46'2 2.4
2016-May-20 12:26N 47°13' W 003°50'3 3.8
2016-May-20 11:32N 47°12' W 003°45'2 0.9
2016-May-20 09:24N 47°12' W 003°42'1 0.7
2016-May-20 07:33N 47°12' W 003°44'2 1.9
2016-May-20 06:17N 47°09' W 003°42'3 3.9
2016-May-20 05:25N 47°13' W 003°40'4 4.2
2016-May-20 04:33N 47°16' W 003°40'4 3.9
2016-May-20 03:33N 47°19' W 003°36'7 6.9
2016-May-20 02:33N 47°25' W 003°32'8 8.5
2016-May-20 01:33N 47°33' W 003°26'9 8.6
2016-May-20 00:33N 47°41' W 003°22'2 2.3
2016-May-19 23:33N 47°43' W 003°22'9 9.0
2016-May-19 22:33N 47°35' W 003°25'9 8.7
2016-May-19 21:33N 47°27' W 003°30'7 6.7
2016-May-19 20:33N 47°20' W 003°34'4 3.6
2016-May-19 19:32N 47°18' W 003°37'5 4.0
2016-May-19 18:21N 47°13' W 003°38'5 0.6
2016-May-19 10:04N 47°09' W 003°43'2 3.5
2016-May-19 09:31N 47°11' W 003°41'4 1.4
2016-May-19 06:29N 47°11' W 003°47'4 4.0
2016-May-19 05:32N 47°14' W 003°43'4 4.0
2016-May-19 04:33N 47°16' W 003°39'4 4.3
2016-May-19 03:33N 47°20' W 003°36'9 8.9
2016-May-19 02:33N 47°28' W 003°30'9 8.9
2016-May-19 01:34N 47°36' W 003°24'8 7.9
2016-May-19 00:33N 47°44' W 003°22'4 3.8
2016-May-18 23:34N 47°40' W 003°23'8 8.2
2016-May-18 22:33N 47°33' W 003°29'8 8.1
2016-May-18 21:33N 47°27' W 003°37'7 6.5
2016-May-18 20:33N 47°22' W 003°43'4 3.7
2016-May-18 19:33N 47°19' W 003°41'4 3.3
2016-May-18 18:23N 47°15' W 003°42'1 0.1
2016-May-18 05:17N 47°14' W 003°42'3 3.5
2016-May-18 04:33N 47°17' W 003°41'5 4.6
2016-May-18 03:33N 47°21' W 003°38'8 8.1
2016-May-18 02:33N 47°28' W 003°32'8 8.1
2016-May-18 01:33N 47°34' W 003°25'8 8.5
2016-May-18 00:33N 47°43' W 003°22'0 0.1
2016-May-17 23:33N 47°43' W 003°22'9 9.1
2016-May-17 22:33N 47°34' W 003°27'9 9.2
2016-May-17 21:33N 47°28' W 003°37'8 6.9
2016-May-17 20:28N 47°22' W 003°43'4 4.3
2016-May-17 19:32N 47°18' W 003°41'10 2.4
2016-May-17 15:33N 47°09' W 003°37'4 3.6
2016-May-17 14:28N 47°09' W 003°43'1 0.9
2016-May-17 13:32N 47°09' W 003°44'2 1.6
2016-May-17 12:27N 47°08' W 003°43'4 0.4
2016-May-17 04:33N 47°10' W 003°39'6 5.7
2016-May-17 03:33N 47°15' W 003°35'9 8.7
2016-May-17 02:33N 47°23' W 003°31'9 9.0
2016-May-17 01:33N 47°31' W 003°26'9 9.4
2016-May-17 00:33N 47°40' W 003°22'  
Track history (hours):
 
Tides and Currents Weather Stations Pressure Air Temp Water Temp Dewpoint Dewpoint Depression Visibility Wind Speed Wind Dir Waves Ship Positions

F/V Oceanie

Last reported at 2016-May-24 20:15 UTC. Time now 2016-May-24 21:27 UTC.
Position N 47°12' W 003°33'.

Length 16 m.

Type: Fishing. MMSI: 228370000.

Date/timePositionNaut miles runAvg speedWind from/ knotsBaromVisibWave heightAir tempDewpointWater temp
2016-May-24 20:15N 47°12' W 003°33'2 3.4
2016-May-24 19:33N 47°10' W 003°34'10 2.3
2016-May-24 15:12N 47°00' W 003°40'3 0.5
2016-May-24 09:20N 47°03' W 003°42'8 1.2
2016-May-24 02:28N 46°56' W 003°36'3 3.3
2016-May-24 01:30N 46°57' W 003°32'1 1.3
2016-May-24 00:24N 46°56' W 003°30'3 3.6
2016-May-23 23:30N 46°55' W 003°35'11 0.6
2016-May-23 05:24N 47°02' W 003°22'7 8.7
2016-May-23 04:33N 47°09' W 003°22'9 8.7
2016-May-23 03:34N 47°18' W 003°22'9 8.7
2016-May-23 02:34N 47°26' W 003°22'9 8.6
2016-May-23 01:34N 47°35' W 003°22'9 8.8
2016-May-23 00:34N 47°44' W 003°22'0 0.0
2016-May-21 00:33N 47°44' W 003°22'0 0.1
2016-May-20 23:33N 47°44' W 003°22'5 5.2
2016-May-20 22:33N 47°40' W 003°28'9 9.0
2016-May-20 21:33N 47°35' W 003°39'9 9.1
2016-May-20 20:33N 47°29' W 003°49'4 4.2
2016-May-20 19:33N 47°25' W 003°51'13 3.8
2016-May-20 16:12N 47°13' W 003°48'2 1.9
2016-May-20 15:25N 47°14' W 003°47'2 1.6
2016-May-20 14:23N 47°13' W 003°49'2 1.9
2016-May-20 13:26N 47°13' W 003°46'2 2.4
2016-May-20 12:26N 47°13' W 003°50'3 3.8
2016-May-20 11:32N 47°12' W 003°45'2 0.9
2016-May-20 09:24N 47°12' W 003°42'1 0.7
2016-May-20 07:33N 47°12' W 003°44'2 1.9
2016-May-20 06:17N 47°09' W 003°42'3 3.9
2016-May-20 05:25N 47°13' W 003°40'4 4.2
2016-May-20 04:33N 47°16' W 003°40'4 3.9
2016-May-20 03:33N 47°19' W 003°36'7 6.9
2016-May-20 02:33N 47°25' W 003°32'8 8.5
2016-May-20 01:33N 47°33' W 003°26'9 8.6
2016-May-20 00:33N 47°41' W 003°22'2 2.3
2016-May-19 23:33N 47°43' W 003°22'9 9.0
2016-May-19 22:33N 47°35' W 003°25'9 8.7
2016-May-19 21:33N 47°27' W 003°30'7 6.7
2016-May-19 20:33N 47°20' W 003°34'4 3.6
2016-May-19 19:32N 47°18' W 003°37'5 4.0
2016-May-19 18:21N 47°13' W 003°38'5 0.6
2016-May-19 10:04N 47°09' W 003°43'2 3.5
2016-May-19 09:31N 47°11' W 003°41'4 1.4
2016-May-19 06:29N 47°11' W 003°47'4 4.0
2016-May-19 05:32N 47°14' W 003°43'4 4.0
2016-May-19 04:33N 47°16' W 003°39'4 4.3
2016-May-19 03:33N 47°20' W 003°36'9 8.9
2016-May-19 02:33N 47°28' W 003°30'9 8.9
2016-May-19 01:34N 47°36' W 003°24'8 7.9
2016-May-19 00:33N 47°44' W 003°22'4 3.8
2016-May-18 23:34N 47°40' W 003°23'8 8.2
2016-May-18 22:33N 47°33' W 003°29'8 8.1
2016-May-18 21:33N 47°27' W 003°37'7 6.5
2016-May-18 20:33N 47°22' W 003°43'4 3.7
2016-May-18 19:33N 47°19' W 003°41'4 3.3
2016-May-18 18:23N 47°15' W 003°42'1 0.1
2016-May-18 05:17N 47°14' W 003°42'3 3.5
2016-May-18 04:33N 47°17' W 003°41'5 4.6
2016-May-18 03:33N 47°21' W 003°38'8 8.1
2016-May-18 02:33N 47°28' W 003°32'8 8.1
2016-May-18 01:33N 47°34' W 003°25'8 8.5
2016-May-18 00:33N 47°43' W 003°22'0 0.1
2016-May-17 23:33N 47°43' W 003°22'9 9.1
2016-May-17 22:33N 47°34' W 003°27'9 9.2
2016-May-17 21:33N 47°28' W 003°37'8 6.9
2016-May-17 20:28N 47°22' W 003°43'4 4.3
2016-May-17 19:32N 47°18' W 003°41'10 2.4
2016-May-17 15:33N 47°09' W 003°37'4 3.6
2016-May-17 14:28N 47°09' W 003°43'1 0.9
2016-May-17 13:32N 47°09' W 003°44'2 1.6
2016-May-17 12:27N 47°08' W 003°43'4 0.4
2016-May-17 04:33N 47°10' W 003°39'6 5.7
2016-May-17 03:33N 47°15' W 003°35'9 8.7
2016-May-17 02:33N 47°23' W 003°31'9 9.0
2016-May-17 01:33N 47°31' W 003°26'9 9.4
2016-May-17 00:33N 47°40' W 003°22'  

Dump ship's entire track history